createdAt,value
2022-09-15T00:01:41.183Z,164.2
2022-09-15T00:02:57.485Z,175.6
2022-09-15T00:04:13.777Z,181.4
2022-09-15T00:05:30.067Z,176.1
2022-09-15T00:06:46.366Z,190.2
2022-09-15T00:08:02.652Z,192.4
2022-09-15T00:09:18.952Z,180
2022-09-15T00:10:34.271Z,180.1
2022-09-15T00:11:50.554Z,183.7
2022-09-15T00:13:06.858Z,187.2
2022-09-15T00:14:23.137Z,186.4
2022-09-15T00:16:55.726Z,193
2022-09-15T00:18:12.021Z,185.9
2022-09-15T00:19:28.326Z,197.6
2022-09-15T00:20:44.609Z,189.9
2022-09-15T00:22:00.910Z,193
2022-09-15T00:23:17.206Z,191.1
2022-09-15T00:24:33.491Z,199
2022-09-15T00:25:49.797Z,185.4
2022-09-15T00:27:05.103Z,186.9
2022-09-15T00:28:21.403Z,185.7
2022-09-15T00:29:37.683Z,196.7
2022-09-15T00:30:53.989Z,182.5
2022-09-15T00:32:10.271Z,192.5
2022-09-15T00:33:26.573Z,194.4
2022-09-15T00:34:42.878Z,197
2022-09-15T00:35:59.164Z,201.2
2022-09-15T00:37:15.457Z,197
2022-09-15T00:38:31.744Z,200.9
2022-09-15T00:39:48.052Z,193.5
2022-09-15T00:41:04.336Z,195.7
2022-09-15T00:42:20.630Z,193.9
2022-09-15T00:43:35.952Z,204.3
2022-09-15T00:44:52.245Z,214.8
2022-09-15T00:47:24.818Z,217.2
2022-09-15T00:48:41.124Z,217.6
2022-09-15T00:49:57.405Z,215.1
2022-09-15T00:51:13.697Z,220
2022-09-15T00:52:30.008Z,212.3
2022-09-15T00:53:46.304Z,223.8
2022-09-15T00:55:02.600Z,227.4
2022-09-15T00:56:18.878Z,231.1
2022-09-15T00:57:35.181Z,213.8
2022-09-15T00:58:51.468Z,221.4
2022-09-15T01:00:06.789Z,223.6
2022-09-15T01:01:23.069Z,219.2
2022-09-15T01:02:39.367Z,233
2022-09-15T01:03:55.664Z,228.6
2022-09-15T01:05:11.958Z,235.1
2022-09-15T01:06:27.271Z,224.1
2022-09-15T01:07:43.565Z,227.3
2022-09-15T01:08:59.856Z,219.6
2022-09-15T01:10:16.148Z,230.8
2022-09-15T01:11:32.443Z,225.4
2022-09-15T01:12:48.754Z,219.8
2022-09-15T01:14:05.040Z,228
2022-09-15T01:15:21.336Z,218.8
2022-09-15T01:16:37.632Z,224.3
2022-09-15T01:17:53.913Z,223.4
2022-09-15T01:19:10.209Z,224.3
2022-09-15T01:20:26.514Z,214.7
2022-09-15T01:21:42.792Z,218.1
2022-09-15T01:22:58.115Z,219.6
2022-09-15T01:24:14.403Z,214.9
2022-09-15T01:25:30.705Z,222.7
2022-09-15T01:26:46.990Z,227.6
2022-09-15T01:28:03.289Z,226.2
2022-09-15T01:29:19.582Z,231.3
2022-09-15T01:30:35.882Z,227.6
2022-09-15T01:31:52.164Z,230
2022-09-15T01:33:08.473Z,232.1
2022-09-15T01:34:24.761Z,229.4
2022-09-15T01:35:41.061Z,240.5
2022-09-15T01:36:57.340Z,250.1
2022-09-15T01:38:13.637Z,248.4
2022-09-15T01:39:28.942Z,252.7
2022-09-15T01:40:45.243Z,272
2022-09-15T01:42:01.530Z,277.7
2022-09-15T01:43:17.836Z,268.9
2022-09-15T01:44:34.122Z,280.8
2022-09-15T01:45:50.417Z,276.2
2022-09-15T01:48:23.017Z,312.5
2022-09-15T01:50:55.597Z,304.9
2022-09-15T01:52:11.888Z,318.8
2022-09-15T01:56:00.779Z,331.7
2022-09-15T01:57:16.081Z,317.5
2022-09-15T01:58:31.411Z,333.1
2022-09-15T01:59:47.691Z,329.9
2022-09-15T02:01:03.988Z,340
2022-09-15T02:02:20.276Z,339
2022-09-15T02:03:36.582Z,359.7
2022-09-15T02:06:09.160Z,329.7
2022-09-15T02:07:25.472Z,360.1
2022-09-15T02:08:41.757Z,333.5
2022-09-15T02:09:58.043Z,331.7
2022-09-15T02:11:14.349Z,310.7
2022-09-15T02:13:46.928Z,329.2
2022-09-15T02:15:02.247Z,332.8
2022-09-15T02:16:17.565Z,354.2
2022-09-15T02:17:33.850Z,323
2022-09-15T02:18:50.141Z,320.5
2022-09-15T02:20:06.444Z,328.6
2022-09-15T02:21:22.735Z,312.8
2022-09-15T02:22:39.037Z,308.9
2022-09-15T02:23:55.321Z,332
2022-09-15T02:25:11.616Z,313.4
2022-09-15T02:26:27.903Z,304.5
2022-09-15T02:27:44.204Z,322.1
2022-09-15T02:28:59.523Z,321
2022-09-15T02:30:14.843Z,322.8
2022-09-15T02:31:31.136Z,351.4
2022-09-15T02:32:47.430Z,328.6
2022-09-15T02:34:03.718Z,320.3
2022-09-15T02:35:20.012Z,313.7
2022-09-15T02:36:36.307Z,314.9
2022-09-15T02:37:52.000Z,326.1
2022-09-15T02:39:08.900Z,306.7
2022-09-15T02:41:41.472Z,314.3
2022-09-15T02:42:57.766Z,322.7
2022-09-15T02:44:14.061Z,315.8
2022-09-15T02:45:30.363Z,297.2
2022-09-15T02:46:46.653Z,311.5
2022-09-15T02:48:01.968Z,299.5
2022-09-15T02:49:18.264Z,308.8
2022-09-15T02:50:34.557Z,304.3
2022-09-15T02:51:50.845Z,304
2022-09-15T02:53:07.142Z,297.4
2022-09-15T02:54:23.437Z,308.7
2022-09-15T02:56:56.028Z,289.3
2022-09-15T02:58:12.315Z,324.3
2022-09-15T02:59:28.603Z,336.6
2022-09-15T03:00:44.917Z,333
2022-09-15T03:02:01.198Z,330.5
2022-09-15T03:03:17.494Z,306
2022-09-15T03:04:32.810Z,300.7
2022-09-15T03:05:49.098Z,290.4
2022-09-15T03:07:05.388Z,310.4
2022-09-15T03:08:20.706Z,302.3
2022-09-15T03:09:36.018Z,312.9
2022-09-15T03:10:52.307Z,307
2022-09-15T03:12:08.611Z,316.3
2022-09-15T03:13:24.897Z,306.6
2022-09-15T03:14:41.201Z,343.9
2022-09-15T03:15:57.487Z,342.8
2022-09-15T03:17:13.779Z,353.1
2022-09-15T03:18:30.069Z,351.1
2022-09-15T03:19:46.375Z,366.7
2022-09-15T03:21:02.676Z,357.6
2022-09-15T03:22:18.952Z,439.4
2022-09-15T03:23:35.262Z,434.6
2022-09-15T03:24:51.552Z,410.7
2022-09-15T03:26:06.861Z,411.8
2022-09-15T03:27:23.159Z,444.8
2022-09-15T03:28:39.444Z,405
2022-09-15T03:29:55.741Z,421
2022-09-15T03:31:12.041Z,413.6
2022-09-15T03:32:28.324Z,426.8
2022-09-15T03:33:44.617Z,406.8
2022-09-15T03:35:00.924Z,405.3
2022-09-15T03:36:17.217Z,385.6
2022-09-15T03:37:33.503Z,402.2
2022-09-15T03:38:49.796Z,404.8
2022-09-15T03:40:06.101Z,393.2
2022-09-15T03:41:22.390Z,384.9
2022-09-15T03:42:37.690Z,400.7
2022-09-15T03:43:53.994Z,383
2022-09-15T03:45:10.294Z,395.7
2022-09-15T03:46:26.587Z,376.5
2022-09-15T03:47:42.883Z,378.7
2022-09-15T03:50:15.461Z,369
2022-09-15T03:51:31.767Z,344.3
2022-09-15T03:52:48.045Z,385.9
2022-09-15T03:54:04.337Z,367.6
2022-09-15T03:55:20.632Z,371.9
2022-09-15T03:56:36.932Z,374.3
2022-09-15T03:57:53.223Z,375.2
2022-09-15T03:59:08.542Z,354.1
2022-09-15T04:00:24.825Z,386.6
2022-09-15T04:01:41.119Z,356.4
2022-09-15T04:02:57.429Z,349.4
2022-09-15T04:04:13.706Z,361.1
2022-09-15T04:05:30.017Z,368.5
2022-09-15T04:06:46.305Z,358.5
2022-09-15T04:08:02.593Z,360
2022-09-15T04:09:18.898Z,363
2022-09-15T04:10:35.191Z,359.3
2022-09-15T04:11:51.419Z,348.3
2022-09-15T04:13:07.727Z,355.6
2022-09-15T04:14:23.967Z,351.9
2022-09-15T04:15:39.237Z,342.6
2022-09-15T04:16:55.462Z,337
2022-09-15T04:18:11.712Z,343.8
2022-09-15T04:19:27.950Z,357.9
2022-09-15T04:20:44.208Z,341.3
2022-09-15T04:22:00.433Z,350.5
2022-09-15T04:23:16.680Z,351.3
2022-09-15T04:24:32.915Z,356.2
2022-09-15T04:25:49.169Z,369.5
2022-09-15T04:27:05.409Z,348.8
2022-09-15T04:28:21.640Z,352.5
2022-09-15T04:29:37.878Z,352
2022-09-15T04:30:54.117Z,364.2
2022-09-15T04:32:09.377Z,345
2022-09-15T04:33:25.611Z,372.9
2022-09-15T04:34:41.850Z,358.4
2022-09-15T04:35:58.095Z,367.1
2022-09-15T04:37:14.345Z,370.7
2022-09-15T04:38:30.572Z,370.4
2022-09-15T04:39:46.805Z,352
2022-09-15T04:41:03.054Z,381.8
2022-09-15T04:43:35.520Z,366.3
2022-09-15T04:44:51.752Z,368.8
2022-09-15T04:46:07.989Z,348.4
2022-09-15T04:47:24.240Z,362.1
2022-09-15T04:48:39.501Z,333
2022-09-15T04:49:55.738Z,359.4
2022-09-15T04:51:11.968Z,348.6
2022-09-15T04:52:28.215Z,357.1
2022-09-15T04:53:44.448Z,328.7
2022-09-15T04:55:00.695Z,346
2022-09-15T04:56:16.945Z,336.8
2022-09-15T04:57:33.173Z,332.4
2022-09-15T04:58:49.421Z,332.1
2022-09-15T05:00:05.653Z,343.2
2022-09-15T05:01:21.895Z,338.3
2022-09-15T05:02:38.134Z,335.7
2022-09-15T05:03:54.367Z,347.4
2022-09-15T05:05:09.640Z,354.2
2022-09-15T05:06:25.860Z,303.2
2022-09-15T05:07:42.103Z,348.6
2022-09-15T05:08:58.349Z,321.2
2022-09-15T05:10:14.595Z,335.2
2022-09-15T05:11:30.830Z,345
2022-09-15T05:12:47.068Z,330.9
2022-09-15T05:14:03.316Z,349.1
2022-09-15T05:15:19.541Z,335.9
2022-09-15T05:16:35.785Z,332
2022-09-15T05:17:52.024Z,328.5
2022-09-15T05:19:08.266Z,325
2022-09-15T05:20:24.515Z,321.1
2022-09-15T05:21:39.767Z,346
2022-09-15T05:22:56.015Z,323.2
2022-09-15T05:24:12.250Z,335.7
2022-09-15T05:25:28.503Z,310.5
2022-09-15T05:26:44.726Z,316.6
2022-09-15T05:28:00.982Z,339.2
2022-09-15T05:29:17.221Z,316.6
2022-09-15T05:30:33.446Z,325.8
2022-09-15T05:31:49.684Z,341.1
2022-09-15T05:33:05.926Z,323.9
2022-09-15T05:34:22.175Z,319.4
2022-09-15T05:35:38.404Z,326.5
2022-09-15T05:36:54.645Z,312
2022-09-15T05:38:09.918Z,299
2022-09-15T05:39:26.145Z,295.9
2022-09-15T05:40:42.386Z,324.1
2022-09-15T05:41:58.637Z,541.7
2022-09-15T05:44:31.103Z,279
2022-09-15T05:45:47.341Z,281.2
2022-09-15T05:47:03.598Z,272.9
2022-09-15T05:48:19.839Z,252.6
2022-09-15T05:49:36.077Z,268.5
2022-09-15T05:50:52.314Z,271.2
2022-09-15T05:52:08.553Z,352.6
2022-09-15T05:53:24.783Z,253.8
2022-09-15T05:54:40.052Z,248.8
2022-09-15T05:55:56.289Z,223.2
2022-09-15T05:57:12.520Z,227.8
2022-09-15T05:58:28.775Z,233.2
2022-09-15T05:59:44.998Z,247.7
2022-09-15T06:01:01.245Z,237
2022-09-15T06:02:17.482Z,218
2022-09-15T06:03:33.728Z,440.7
2022-09-15T06:04:49.976Z,360.1
2022-09-15T06:06:06.215Z,240.8
2022-09-15T06:07:22.449Z,204.5
2022-09-15T06:08:38.694Z,206.1
2022-09-15T06:09:54.925Z,190.1
2022-09-15T06:11:10.190Z,181.5
2022-09-15T06:12:26.436Z,172.4
2022-09-15T06:13:42.666Z,167.6
2022-09-15T06:14:58.895Z,225.1
2022-09-15T06:17:31.383Z,172.6
2022-09-15T06:18:47.636Z,177.9
2022-09-15T06:20:03.875Z,171.1
2022-09-15T06:21:20.114Z,168.5
2022-09-15T06:22:36.340Z,160.8
2022-09-15T06:23:52.580Z,146.6
2022-09-15T06:25:08.825Z,156.4
2022-09-15T06:26:25.068Z,145.3
2022-09-15T06:27:40.315Z,123.2
2022-09-15T06:28:56.569Z,115.4
2022-09-15T06:30:12.813Z,105.9
2022-09-15T06:31:29.035Z,101.1
2022-09-15T06:32:45.285Z,92.2
2022-09-15T06:34:01.515Z,100.3
2022-09-15T06:35:17.758Z,113.2
2022-09-15T06:36:33.993Z,99.8
2022-09-15T06:37:50.253Z,92.4
2022-09-15T06:39:06.493Z,98.1
2022-09-15T06:40:22.730Z,236
2022-09-15T06:41:38.973Z,110.2
2022-09-15T06:42:55.212Z,575.8
2022-09-15T06:45:26.700Z,93.2
2022-09-15T06:46:42.945Z,88.1
2022-09-15T06:47:59.182Z,87.4
2022-09-15T06:49:15.431Z,85.5
2022-09-15T06:50:31.661Z,922.4
2022-09-15T06:51:47.910Z,193.1
2022-09-15T06:53:04.148Z,71.4
2022-09-15T06:54:20.385Z,74.6
2022-09-15T06:55:36.614Z,72.6
2022-09-15T06:56:52.861Z,290.4
2022-09-15T06:58:09.094Z,79.2
2022-09-15T06:59:25.339Z,255.8
2022-09-15T07:00:41.586Z,69.1
2022-09-15T07:03:13.084Z,58.4
2022-09-15T07:04:29.320Z,55.2
2022-09-15T07:05:45.558Z,158.2
2022-09-15T07:08:18.048Z,50.6
2022-09-15T07:09:33.300Z,46.9
2022-09-15T07:10:49.544Z,43
2022-09-15T07:12:04.787Z,44.5
2022-09-15T07:13:21.036Z,46.8
2022-09-15T07:14:37.287Z,41.8
2022-09-15T07:15:53.516Z,34.9
2022-09-15T07:17:09.753Z,40
2022-09-15T07:18:26.004Z,41.5
2022-09-15T07:19:42.244Z,37.2
2022-09-15T07:20:58.482Z,31
2022-09-15T07:22:14.711Z,34.1
2022-09-15T07:23:30.967Z,31.9
2022-09-15T07:24:46.216Z,33.2
2022-09-15T07:26:01.483Z,30.2
2022-09-15T07:27:17.710Z,29.4
2022-09-15T07:28:33.949Z,26.4
2022-09-15T07:31:06.439Z,25.8
2022-09-15T07:32:22.686Z,26.8
2022-09-15T07:33:38.922Z,24.9
2022-09-15T07:34:55.158Z,25.5
2022-09-15T07:36:11.391Z,25.1
2022-09-15T07:37:27.648Z,25.1
2022-09-15T07:38:43.876Z,23.4
2022-09-15T07:40:00.111Z,24.9
2022-09-15T07:41:16.362Z,24.7
2022-09-15T07:42:31.624Z,23.5
2022-09-15T07:43:47.867Z,22.8
2022-09-15T07:46:20.342Z,28.6
2022-09-15T07:47:35.592Z,375.6
2022-09-15T07:48:50.852Z,76
2022-09-15T07:50:07.101Z,21.8
2022-09-15T07:51:23.326Z,21.3
2022-09-15T07:52:39.574Z,21.3
2022-09-15T07:53:55.804Z,22.2
2022-09-15T07:55:12.052Z,23.8
2022-09-15T07:56:28.300Z,19.9
2022-09-15T07:57:44.536Z,21.5
2022-09-15T07:59:00.766Z,23.3
2022-09-15T08:01:33.248Z,20.8
2022-09-15T08:02:49.502Z,19.9
2022-09-15T08:04:05.738Z,20.8
2022-09-15T08:05:21.002Z,19.2
2022-09-15T08:06:37.220Z,18.5
2022-09-15T08:09:09.702Z,18.2
2022-09-15T08:10:24.975Z,16.5
2022-09-15T08:11:40.235Z,17.1
2022-09-15T08:12:56.478Z,17.6
2022-09-15T08:14:12.699Z,17.3
2022-09-15T08:15:28.955Z,15.7
2022-09-15T08:16:45.187Z,16.3
2022-09-15T08:18:01.423Z,17.7
2022-09-15T08:19:17.671Z,16.8
2022-09-15T08:20:33.917Z,16.1
2022-09-15T08:21:50.143Z,17.8
2022-09-15T08:24:22.622Z,17
2022-09-15T08:25:38.869Z,16.2
2022-09-15T08:26:55.108Z,17.1
2022-09-15T08:28:10.357Z,18.5
2022-09-15T08:29:26.603Z,18.3
2022-09-15T08:31:59.080Z,18.2
2022-09-15T08:33:15.326Z,17
2022-09-15T08:34:31.575Z,16.1
2022-09-15T08:35:47.809Z,18
2022-09-15T08:37:04.043Z,16.6
2022-09-15T08:39:36.523Z,16
2022-09-15T08:40:52.758Z,16.5
2022-09-15T08:42:09.003Z,15.9
2022-09-15T08:43:25.242Z,17.4
2022-09-15T08:44:40.504Z,17
2022-09-15T08:47:12.988Z,17.5
2022-09-15T08:48:29.214Z,18.5
2022-09-15T08:49:45.470Z,17.4
2022-09-15T08:51:01.705Z,20.1
2022-09-15T08:52:17.936Z,68.9
2022-09-15T08:53:34.193Z,21
2022-09-15T08:54:50.414Z,17.2
2022-09-15T08:56:06.671Z,18.4
2022-09-15T08:57:22.900Z,18
2022-09-15T08:58:39.143Z,17.2
2022-09-15T08:59:55.392Z,18.4
2022-09-15T09:02:26.870Z,19.1
2022-09-15T09:03:43.129Z,16.9
2022-09-15T09:04:59.359Z,19.2
2022-09-15T09:06:15.592Z,18
2022-09-15T09:07:31.845Z,18
2022-09-15T09:08:48.070Z,18.6
2022-09-15T09:10:04.327Z,17.2
2022-09-15T09:12:36.793Z,18
2022-09-15T09:13:53.030Z,17.5
2022-09-15T09:15:09.273Z,18.4
2022-09-15T09:16:25.531Z,17.1
2022-09-15T09:17:40.786Z,14.7
2022-09-15T09:18:57.012Z,16.8
2022-09-15T09:20:13.254Z,15.9
2022-09-15T09:22:45.730Z,18
2022-09-15T09:25:18.206Z,15.2
2022-09-15T09:26:34.464Z,16.3
2022-09-15T09:27:50.698Z,13.9
2022-09-15T09:29:06.936Z,15.5
2022-09-15T09:30:23.178Z,13.2
2022-09-15T09:32:55.661Z,15
2022-09-15T09:34:11.899Z,17.6
2022-09-15T09:35:27.162Z,69.8
2022-09-15T09:36:43.383Z,329.3
2022-09-15T09:37:59.638Z,18.5
2022-09-15T09:40:31.130Z,179.5
2022-09-15T09:41:46.400Z,19.9
2022-09-15T09:43:02.625Z,165.2
2022-09-15T09:44:18.886Z,33.5
2022-09-15T09:45:35.125Z,17.5
2022-09-15T09:46:51.358Z,46.5
2022-09-15T09:48:07.595Z,66.5
2022-09-15T09:49:23.828Z,17.3
2022-09-15T09:50:40.080Z,18.5
2022-09-15T09:51:56.317Z,17.5
2022-09-15T09:53:12.560Z,18.1
2022-09-15T09:54:28.799Z,41.6
2022-09-15T09:55:45.028Z,108.7
2022-09-15T09:57:01.272Z,47.6
2022-09-15T09:58:16.529Z,20.4
2022-09-15T09:59:31.799Z,18
2022-09-15T10:00:47.062Z,19.7
2022-09-15T10:02:03.295Z,65.4
2022-09-15T10:03:19.540Z,17
2022-09-15T10:04:35.778Z,33.4
2022-09-15T10:05:52.007Z,26.8
2022-09-15T10:08:24.494Z,64.6
2022-09-15T10:09:40.736Z,21.3
2022-09-15T10:10:56.966Z,18.5
2022-09-15T10:12:13.215Z,17.2
2022-09-15T10:13:29.448Z,17.1
2022-09-15T10:14:45.698Z,15.5
2022-09-15T10:16:01.931Z,15.3
2022-09-15T10:18:33.436Z,19.6
2022-09-15T10:19:48.696Z,516.8
2022-09-15T10:21:03.951Z,37
2022-09-15T10:22:20.196Z,14.4
2022-09-15T10:23:36.420Z,12.1
2022-09-15T10:24:52.670Z,14
2022-09-15T10:26:08.916Z,11.8
2022-09-15T10:27:25.149Z,12.4
2022-09-15T10:28:41.384Z,13.1
2022-09-15T10:29:57.634Z,14.3
2022-09-15T10:31:13.862Z,13
2022-09-15T10:33:46.350Z,12.4
2022-09-15T10:35:02.586Z,12.3
2022-09-15T10:36:18.820Z,13.9
2022-09-15T10:38:50.313Z,11.2
2022-09-15T10:41:22.813Z,10.9
2022-09-15T10:42:39.035Z,10
2022-09-15T10:43:55.281Z,10.2
2022-09-15T10:45:11.526Z,10.8
2022-09-15T10:46:27.763Z,11.5
2022-09-15T10:47:43.999Z,11.7
2022-09-15T10:49:00.250Z,11
2022-09-15T10:50:16.487Z,10.4
2022-09-15T10:51:32.733Z,9.6
2022-09-15T10:52:48.969Z,10.4
2022-09-15T10:54:05.204Z,10.8
2022-09-15T10:56:36.699Z,9.4
2022-09-15T10:57:52.938Z,10.2
2022-09-15T10:59:09.184Z,10.1
2022-09-15T11:01:41.664Z,11.6
2022-09-15T11:04:14.140Z,10.9
2022-09-15T11:05:30.387Z,10.1
2022-09-15T11:06:46.621Z,10.6
2022-09-15T11:09:19.103Z,10.8
2022-09-15T11:10:35.346Z,9.9
2022-09-15T11:11:50.599Z,11.9
2022-09-15T11:13:06.841Z,10.4
2022-09-15T11:14:23.070Z,10.9
2022-09-15T11:15:39.314Z,11.8
2022-09-15T11:16:55.558Z,11.4
2022-09-15T11:19:28.036Z,11.9
2022-09-15T11:20:44.284Z,12.5
2022-09-15T11:22:00.512Z,11.4
2022-09-15T11:24:33.006Z,13
2022-09-15T11:27:05.476Z,12
2022-09-15T11:28:20.745Z,13.3
2022-09-15T11:29:36.974Z,13
2022-09-15T11:30:53.218Z,12.3
2022-09-15T11:32:09.451Z,12.9
2022-09-15T11:33:25.694Z,13
2022-09-15T11:34:41.929Z,9.7
2022-09-15T11:35:58.178Z,10.7
2022-09-15T11:37:14.427Z,10.9
2022-09-15T11:39:46.895Z,10
2022-09-15T11:41:03.144Z,10.9
2022-09-15T11:42:19.369Z,11.1
2022-09-15T11:44:51.865Z,10.7
2022-09-15T11:46:07.106Z,11
2022-09-15T11:47:23.347Z,9.6
2022-09-15T11:48:39.597Z,10.5
2022-09-15T11:49:55.826Z,9.1
2022-09-15T11:51:12.079Z,9.7
2022-09-15T11:52:28.319Z,9.9
2022-09-15T11:53:44.551Z,10
2022-09-15T11:55:00.798Z,8.3
2022-09-15T11:56:17.037Z,9.6
2022-09-15T11:57:33.271Z,8.9
2022-09-15T11:58:49.511Z,8.9
2022-09-15T12:00:05.758Z,7.7
2022-09-15T12:01:21.987Z,7.6
2022-09-15T12:02:38.243Z,9.1
2022-09-15T12:05:09.727Z,10.4
2022-09-15T12:06:25.966Z,7.9
2022-09-15T12:07:42.217Z,7
2022-09-15T12:08:58.449Z,7.3
2022-09-15T12:10:14.695Z,8.5
2022-09-15T12:12:47.164Z,8
2022-09-15T12:14:03.415Z,6
2022-09-15T12:15:19.657Z,8
2022-09-15T12:16:35.897Z,6.7
2022-09-15T12:17:52.122Z,6.5
2022-09-15T12:20:24.604Z,6.6
2022-09-15T12:21:39.868Z,7.8
2022-09-15T12:22:56.110Z,8.5
2022-09-15T12:24:12.343Z,6.9
2022-09-15T12:25:28.582Z,6.7
2022-09-15T12:26:44.824Z,7.8
2022-09-15T12:28:01.070Z,6.8
2022-09-15T12:29:17.306Z,7.1
2022-09-15T12:30:33.542Z,6.9
2022-09-15T12:31:49.794Z,6
2022-09-15T12:33:06.022Z,5.3
2022-09-15T12:35:38.508Z,6.8
2022-09-15T12:36:54.753Z,6.1
2022-09-15T12:38:10.007Z,5.5
2022-09-15T12:40:42.495Z,4.7
2022-09-15T12:41:58.717Z,5.3
2022-09-15T12:43:14.962Z,5.3
2022-09-15T12:44:31.205Z,3.8
2022-09-15T12:45:47.440Z,4.6
2022-09-15T12:47:03.683Z,4.5
2022-09-15T12:48:19.920Z,5.1
2022-09-15T12:49:36.165Z,4.6
2022-09-15T12:50:52.398Z,4.4
2022-09-15T12:52:08.644Z,4
2022-09-15T12:53:24.882Z,4.9
2022-09-15T12:54:40.145Z,4.5
2022-09-15T12:55:56.394Z,4.9
2022-09-15T12:57:12.628Z,3.2
2022-09-15T12:58:28.875Z,4.8
2022-09-15T12:59:45.114Z,6.3
2022-09-15T13:02:17.590Z,4.6
2022-09-15T13:03:33.833Z,4.5
2022-09-15T13:06:06.304Z,4.7
2022-09-15T13:07:22.540Z,4.1
2022-09-15T13:08:38.787Z,3.5
2022-09-15T13:09:55.021Z,3.6
2022-09-15T13:11:11.267Z,4.7
2022-09-15T13:13:42.770Z,4.3
2022-09-15T13:14:59.009Z,4.5
2022-09-15T13:16:15.246Z,5.5
2022-09-15T13:17:31.486Z,4.3
2022-09-15T13:18:47.719Z,4.9
2022-09-15T13:21:20.194Z,3.7
2022-09-15T13:22:36.442Z,4
2022-09-15T13:23:52.682Z,5
2022-09-15T13:25:08.922Z,3.9
2022-09-15T13:26:25.171Z,6.5
2022-09-15T13:28:57.635Z,5.2
2022-09-15T13:30:12.900Z,4.9
2022-09-15T13:31:29.131Z,5.2
2022-09-15T13:34:01.628Z,5.1
2022-09-15T13:36:34.105Z,5.3
2022-09-15T13:37:50.341Z,4.9
2022-09-15T13:39:06.586Z,5.6
2022-09-15T13:40:22.815Z,5.1
2022-09-15T13:41:39.057Z,4.7
2022-09-15T13:42:55.300Z,6.3
2022-09-15T13:44:11.549Z,4.7
2022-09-15T13:45:27.790Z,5.4
2022-09-15T13:46:43.044Z,5.2
2022-09-15T13:47:59.285Z,5.2
2022-09-15T13:49:15.516Z,5.3
2022-09-15T13:50:31.768Z,5
2022-09-15T13:51:47.992Z,4.9
2022-09-15T13:53:04.233Z,4.7
2022-09-15T13:54:20.485Z,4.8
2022-09-15T13:55:36.713Z,5.8
2022-09-15T13:56:51.974Z,5.8
2022-09-15T13:58:08.221Z,4.8
2022-09-15T13:59:24.453Z,4.4
2022-09-15T14:00:39.719Z,5.5
2022-09-15T14:01:55.961Z,5.6
2022-09-15T14:03:11.227Z,4.9
2022-09-15T14:04:27.458Z,4.6
2022-09-15T14:05:43.694Z,5
2022-09-15T14:06:59.944Z,5.4
2022-09-15T14:08:16.189Z,4.6
2022-09-15T14:09:32.417Z,5.6
2022-09-15T14:10:48.653Z,5.4
2022-09-15T14:12:04.911Z,6.3
2022-09-15T14:14:37.374Z,7
2022-09-15T14:15:53.624Z,5.5
2022-09-15T14:17:09.864Z,5.6
2022-09-15T14:18:26.092Z,5.7
2022-09-15T14:19:42.333Z,7.3
2022-09-15T14:22:13.835Z,5.6
2022-09-15T14:23:29.098Z,6.3
2022-09-15T14:24:44.358Z,6.2
2022-09-15T14:26:00.589Z,5.7
2022-09-15T14:27:16.833Z,5.9
2022-09-15T14:29:49.317Z,4.3
2022-09-15T14:31:05.563Z,5.8
2022-09-15T14:32:21.789Z,7.7
2022-09-15T14:33:38.043Z,5.3
2022-09-15T14:34:54.283Z,6.6
2022-09-15T14:37:26.766Z,6.3
2022-09-15T14:38:42.988Z,5.7
2022-09-15T14:39:59.241Z,7
2022-09-15T14:41:14.496Z,6
2022-09-15T14:42:30.742Z,6
2022-09-15T14:45:03.208Z,5.8
2022-09-15T14:46:19.452Z,7.3
2022-09-15T14:47:35.685Z,7
2022-09-15T14:48:51.940Z,5.5
2022-09-15T14:50:08.183Z,4.9
2022-09-15T14:51:24.406Z,4.6
2022-09-15T14:52:40.663Z,6
2022-09-15T14:53:56.896Z,5.9
2022-09-15T14:55:13.127Z,4.6
2022-09-15T14:57:45.625Z,6.2
2022-09-15T15:00:17.107Z,5.4
2022-09-15T15:01:33.355Z,5.3
2022-09-15T15:02:49.585Z,6.3
2022-09-15T15:04:05.843Z,6.1
2022-09-15T15:05:22.071Z,5.3
2022-09-15T15:06:38.308Z,5
2022-09-15T15:07:54.556Z,6.2
2022-09-15T15:09:10.792Z,4.9
2022-09-15T15:10:27.025Z,5.3
2022-09-15T15:11:43.266Z,4.8
2022-09-15T15:12:59.515Z,5.1
2022-09-15T15:15:31.989Z,5.3
2022-09-15T15:16:47.244Z,5.2
2022-09-15T15:18:03.495Z,4.5
2022-09-15T15:19:19.727Z,5.1
2022-09-15T15:20:35.969Z,5.9
2022-09-15T15:21:52.199Z,5
2022-09-15T15:23:08.446Z,6.1
2022-09-15T15:24:24.686Z,6.7
2022-09-15T15:25:40.925Z,5.4
2022-09-15T15:26:56.187Z,5.7
2022-09-15T15:28:12.435Z,6.4
2022-09-15T15:30:43.935Z,5.2
2022-09-15T15:32:00.160Z,5.9
2022-09-15T15:33:16.406Z,5.4
2022-09-15T15:34:32.655Z,5.2
2022-09-15T15:35:48.889Z,5.8
2022-09-15T15:38:21.372Z,5.4
2022-09-15T15:39:37.602Z,5.3
2022-09-15T15:40:53.846Z,6.4
2022-09-15T15:42:10.092Z,5.3
2022-09-15T15:43:25.347Z,5.7
2022-09-15T15:45:56.853Z,6.1
2022-09-15T15:48:29.324Z,6.4
2022-09-15T15:49:45.565Z,7.6
2022-09-15T15:51:01.805Z,6.3
2022-09-15T15:52:18.035Z,6.9
2022-09-15T15:53:34.293Z,5.8
2022-09-15T15:54:50.520Z,5.7
2022-09-15T15:56:06.770Z,6.2
2022-09-15T15:57:22.995Z,6.5
2022-09-15T15:58:39.250Z,6
2022-09-15T16:01:11.719Z,5.3
2022-09-15T16:03:43.226Z,6.1
2022-09-15T16:04:59.465Z,5.7
2022-09-15T16:06:15.697Z,4.6
2022-09-15T16:08:48.182Z,6.8
2022-09-15T16:10:04.422Z,5.6
2022-09-15T16:11:20.668Z,5.4
2022-09-15T16:13:53.000Z,6.7
2022-09-15T16:16:25.615Z,6.5
2022-09-15T16:17:41.871Z,4.8
2022-09-15T16:18:57.126Z,5.3
2022-09-15T16:20:13.366Z,5.9
2022-09-15T16:21:29.605Z,5.8
2022-09-15T16:24:02.070Z,5.7
2022-09-15T16:25:18.316Z,6.1
2022-09-15T16:26:34.557Z,6.1
2022-09-15T16:27:50.799Z,6.3
2022-09-15T16:29:07.033Z,5.8
2022-09-15T16:30:23.281Z,5.7
2022-09-15T16:31:39.530Z,5.2
2022-09-15T16:32:55.765Z,6.1
2022-09-15T16:34:11.991Z,4.7
2022-09-15T16:35:28.239Z,5.8
2022-09-15T16:36:44.477Z,6
2022-09-15T16:37:59.733Z,5.8
2022-09-15T16:39:15.975Z,6.5
2022-09-15T16:40:32.209Z,5.8
2022-09-15T16:41:48.450Z,5.8
2022-09-15T16:43:03.720Z,5.7
2022-09-15T16:44:18.976Z,5.9
2022-09-15T16:45:35.214Z,6.8
2022-09-15T16:46:51.456Z,6.2
2022-09-15T16:48:07.702Z,5.5
2022-09-15T16:49:23.937Z,5.9
2022-09-15T16:50:40.180Z,7.6
2022-09-15T16:51:56.427Z,5.4
2022-09-15T16:54:28.893Z,7
2022-09-15T16:55:45.129Z,7.3
2022-09-15T16:57:01.366Z,6.7
2022-09-15T16:59:33.856Z,7
2022-09-15T17:02:05.348Z,7.1
2022-09-15T17:03:21.594Z,8.8
2022-09-15T17:04:36.868Z,6.3
2022-09-15T17:05:52.118Z,7
2022-09-15T17:07:08.347Z,6.3
2022-09-15T17:08:24.602Z,7
2022-09-15T17:09:40.840Z,6.3
2022-09-15T17:10:57.070Z,6.2
2022-09-15T17:12:13.316Z,6
2022-09-15T17:14:45.797Z,7.6
2022-09-15T17:17:18.270Z,6.6
2022-09-15T17:18:34.519Z,7.8
2022-09-15T17:19:50.752Z,6.7
2022-09-15T17:21:07.001Z,7.6
2022-09-15T17:22:22.250Z,6.6
2022-09-15T17:23:38.502Z,6.3
2022-09-15T17:24:54.729Z,7
2022-09-15T17:26:10.961Z,7.2
2022-09-15T17:27:27.204Z,6.5
2022-09-15T17:28:43.446Z,5.6
2022-09-15T17:29:59.689Z,5.6
2022-09-15T17:32:32.175Z,5.6
2022-09-15T17:33:48.422Z,5.4
2022-09-15T17:35:04.644Z,5.8
2022-09-15T17:36:20.898Z,6
2022-09-15T17:37:37.143Z,6
2022-09-15T17:40:08.636Z,5.8
2022-09-15T17:41:24.864Z,5.4
2022-09-15T17:42:41.117Z,4.9
2022-09-15T17:43:57.353Z,4.6
2022-09-15T17:45:13.589Z,5
2022-09-15T17:46:29.839Z,8.2
2022-09-15T17:47:46.068Z,8.9
2022-09-15T17:49:02.303Z,10.1
2022-09-15T17:50:18.559Z,9.5
2022-09-15T17:51:34.799Z,5.9
2022-09-15T17:52:51.020Z,6.6
2022-09-15T17:55:23.510Z,7.5
2022-09-15T17:56:38.764Z,7.4
2022-09-15T17:57:55.014Z,8.1
2022-09-15T17:59:11.299Z,8.3
2022-09-15T18:00:27.591Z,7.3
2022-09-15T18:03:00.165Z,5.5
2022-09-15T18:04:16.471Z,6.3
2022-09-15T18:05:32.769Z,6
2022-09-15T18:06:49.061Z,6.2
2022-09-15T18:08:05.358Z,6.6
2022-09-15T18:09:21.655Z,8.9
2022-09-15T18:10:37.939Z,6.2
2022-09-15T18:11:53.258Z,8.9
2022-09-15T18:13:09.549Z,6.2
2022-09-15T18:14:25.833Z,5.8
2022-09-15T18:15:42.130Z,4.9
2022-09-15T18:18:14.722Z,5.7
2022-09-15T18:19:31.009Z,6.5
2022-09-15T18:20:47.309Z,6.7
2022-09-15T18:22:03.605Z,6.3
2022-09-15T18:23:19.894Z,6.3
2022-09-15T18:25:52.478Z,6.6
2022-09-15T18:27:08.787Z,6.1
2022-09-15T18:28:24.091Z,6.1
2022-09-15T18:29:40.379Z,4.9
2022-09-15T18:30:56.686Z,6.1
2022-09-15T18:33:29.272Z,5.5
2022-09-15T18:34:45.561Z,6.9
2022-09-15T18:36:01.849Z,6.1
2022-09-15T18:37:18.141Z,6.8
2022-09-15T18:38:34.449Z,5.7
2022-09-15T18:41:07.035Z,8.1
2022-09-15T18:42:23.334Z,6.8
2022-09-15T18:43:39.615Z,8.6
2022-09-15T18:44:54.923Z,7.9
2022-09-15T18:46:11.235Z,5.3
2022-09-15T18:48:43.821Z,6.5
2022-09-15T18:50:00.106Z,7.1
2022-09-15T18:51:16.402Z,6.7
2022-09-15T18:52:32.698Z,6
2022-09-15T18:53:48.991Z,5.7
2022-09-15T18:56:21.583Z,6.9